Time;durP1;ratioP1;P1;durP2;ratioP2;P2;SDS_P1;SDS_P2;PMS_P1;PMS_P2;Temp;Humidity;BMP_temperature;BMP_pressure;BME280_temperature;BME280_humidity;BME280_pressure;Samples;Min_cycle;Max_cycle;Signal;HPM_P1;HPM_P2
2021/10/01 00:02:17;;;;;;;7.63;1.40;;;;;;;11.77;67.17;101931.53;10146196;28;20132;-69
2021/10/01 00:07:14;;;;;;;5.30;1.17;;;;;;;11.82;67.48;101928.72;10147247;28;20073;-69
2021/10/01 00:12:11;;;;;;;8.60;1.45;;;;;;;11.83;67.14;101930.31;10148938;28;20113;-68
2021/10/01 00:17:09;;;;;;;3.72;1.10;;;;;;;11.82;67.12;101920.50;10144762;28;20042;-69
2021/10/01 00:22:05;;;;;;;7.32;1.27;;;;;;;11.86;67.20;101917.94;10149461;28;20066;-68
2021/10/01 00:27:08;;;;;;;6.00;1.08;;;;;;;11.81;67.24;101899.66;10150475;28;20121;-69
2021/10/01 00:32:05;;;;;;;8.63;1.30;;;;;;;11.82;67.41;101895.81;10146400;28;20096;-68
2021/10/01 00:37:02;;;;;;;6.85;1.40;;;;;;;11.83;67.35;101893.91;10146203;28;20148;-68
2021/10/01 00:42:00;;;;;;;9.60;1.33;;;;;;;11.81;68.01;101894.19;10150062;28;20042;-68
2021/10/01 00:46:57;;;;;;;6.13;1.23;;;;;;;11.75;68.13;101878.94;10154747;28;20443;-68
2021/10/01 00:51:53;;;;;;;5.70;1.33;;;;;;;11.68;68.21;101873.03;10158170;28;20465;-69
2021/10/01 00:56:50;;;;;;;6.15;1.10;;;;;;;11.72;69.24;101874.03;10159922;28;20660;-68
2021/10/01 01:01:46;;;;;;;5.80;1.20;;;;;;;11.71;69.73;101878.72;10149715;28;20053;-68
2021/10/01 01:07:00;;;;;;;5.88;1.08;;;;;;;11.72;68.79;101868.56;10152664;28;20038;-69
2021/10/01 01:12:23;;;;;;;11.93;1.73;;;;;;;11.75;69.18;101852.34;10145001;28;20109;-69
2021/10/01 01:17:24;;;;;;;3.55;1.08;;;;;;;11.75;69.18;101846.88;10144807;28;20648;-69
2021/10/01 01:22:30;;;;;;;4.70;0.88;;;;;;;11.73;68.95;101848.28;10161512;28;20066;-68
2021/10/01 01:27:27;;;;;;;2.67;0.85;;;;;;;11.76;68.68;101842.22;10153983;28;20046;-68
2021/10/01 01:32:24;;;;;;;5.72;1.08;;;;;;;11.76;68.78;101842.22;10166693;28;20137;-68
2021/10/01 01:37:42;;;;;;;6.20;1.10;;;;;;;11.69;68.41;101837.09;10154666;28;20053;-68
2021/10/01 01:42:41;;;;;;;5.55;1.00;;;;;;;11.78;68.40;101837.25;10159811;28;20050;-69
2021/10/01 01:47:39;;;;;;;4.53;0.70;;;;;;;11.78;68.16;101834.50;10155359;28;20678;-68
2021/10/01 01:52:38;;;;;;;7.72;1.13;;;;;;;11.74;68.42;101834.31;10157007;28;20144;-68
2021/10/01 01:57:35;;;;;;;4.85;1.15;;;;;;;11.77;67.95;101828.22;10133724;28;20084;-69
2021/10/01 02:02:33;;;;;;;6.72;0.98;;;;;;;11.76;68.04;101810.13;10153656;28;20463;-69
2021/10/01 02:07:31;;;;;;;5.63;0.80;;;;;;;11.76;67.97;101803.84;10156635;28;20053;-68
2021/10/01 02:12:29;;;;;;;5.28;1.00;;;;;;;11.72;67.87;101797.34;10162200;28;20087;-68
2021/10/01 02:17:30;;;;;;;8.57;1.08;;;;;;;11.70;67.98;101797.66;10160722;28;20519;-68
2021/10/01 02:22:28;;;;;;;4.20;0.70;;;;;;;11.71;68.26;101792.97;10155917;28;20049;-67
2021/10/01 02:27:42;;;;;;;6.47;1.55;;;;;;;11.67;68.50;101790.00;10152874;28;20109;-69
2021/10/01 02:32:42;;;;;;;;;;;;;;;11.65;68.49;101783.22;10161634;28;20050;-67
2021/10/01 02:37:38;;;;;;;5.50;0.90;;;;;;;11.63;68.51;101777.22;10167324;28;19945;-68
2021/10/01 02:42:36;;;;;;;3.50;0.82;;;;;;;11.62;68.49;101770.13;10151814;28;20073;-70
2021/10/01 02:47:34;;;;;;;5.68;0.90;;;;;;;11.59;68.67;101772.34;10171289;28;20074;-70
2021/10/01 02:52:38;;;;;;;4.38;0.90;;;;;;;11.62;68.87;101761.91;10160443;28;20464;-69
2021/10/01 02:57:40;;;;;;;5.75;1.08;;;;;;;11.58;68.19;101759.78;10158227;28;20038;-70
2021/10/01 03:02:39;;;;;;;4.63;0.80;;;;;;;11.53;68.38;101751.63;10159745;28;20485;-70
2021/10/01 03:07:39;;;;;;;5.72;0.95;;;;;;;11.52;68.28;101744.53;10162969;28;20054;-70
2021/10/01 03:12:37;;;;;;;7.20;1.00;;;;;;;11.53;68.28;101737.94;10155920;28;20145;-70
2021/10/01 03:17:35;;;;;;;4.95;1.13;;;;;;;11.50;68.48;101735.78;10159730;28;20089;-70
2021/10/01 03:22:32;;;;;;;5.82;1.10;;;;;;;11.46;68.41;101740.22;10167314;28;20049;-69
2021/10/01 03:27:32;;;;;;;5.85;0.95;;;;;;;11.43;68.17;101740.84;10158937;28;20046;-70
2021/10/01 03:32:30;;;;;;;6.57;1.48;;;;;;;11.33;68.67;101730.88;10154833;28;20085;-67
2021/10/01 03:37:31;;;;;;;2.70;0.98;;;;;;;11.30;68.74;101730.63;10151311;28;20055;-69
2021/10/01 03:42:27;;;;;;;6.78;1.10;;;;;;;11.26;69.05;101729.63;10157699;28;20419;-69
2021/10/01 03:47:24;;;;;;;4.57;0.73;;;;;;;11.24;68.67;101715.41;10152307;28;20053;-69
2021/10/01 03:52:21;;;;;;;6.07;1.10;;;;;;;11.22;68.92;101714.91;10141735;28;20056;-69
2021/10/01 03:57:19;;;;;;;5.25;0.93;;;;;;;11.22;68.78;101712.16;10154759;28;20050;-69
2021/10/01 04:02:15;;;;;;;3.83;0.82;;;;;;;11.20;68.76;101722.59;10141518;28;20529;-70
2021/10/01 04:07:12;;;;;;;3.15;0.75;;;;;;;11.16;69.04;101723.19;10138000;28;20066;-70
2021/10/01 04:12:09;;;;;;;6.50;0.80;;;;;;;11.11;68.76;101717.78;10150299;28;20049;-70
2021/10/01 04:17:05;;;;;;;6.28;0.90;;;;;;;11.10;68.61;101710.69;10154959;28;20046;-70
2021/10/01 04:22:02;;;;;;;9.52;1.23;;;;;;;11.04;68.79;101711.06;10147972;28;20050;-70
2021/10/01 04:26:59;;;;;;;5.20;1.10;;;;;;;11.07;68.88;101708.56;10152867;28;20161;-69
2021/10/01 04:31:55;;;;;;;6.03;1.13;;;;;;;11.04;69.30;101706.38;10149978;28;20133;-69
2021/10/01 04:36:52;;;;;;;7.88;1.20;;;;;;;11.04;68.53;101706.38;10135610;28;20547;-69
2021/10/01 04:41:48;;;;;;;6.55;0.93;;;;;;;11.06;68.61;101701.44;10154046;28;20042;-69
2021/10/01 04:46:45;;;;;;;5.68;0.90;;;;;;;11.07;68.30;101705.81;10141376;28;20105;-69
2021/10/01 04:51:41;;;;;;;3.45;1.10;;;;;;;11.07;68.81;101708.56;10149943;28;20054;-70
2021/10/01 04:56:38;;;;;;;6.65;0.98;;;;;;;11.09;68.71;101708.25;10151593;28;20047;-70
2021/10/01 05:01:35;;;;;;;4.60;1.10;;;;;;;11.03;68.17;101699.31;10153457;28;20050;-69
2021/10/01 05:06:32;;;;;;;4.55;0.85;;;;;;;11.01;68.60;101707.00;10159673;28;20560;-69
2021/10/01 05:11:28;;;;;;;6.00;1.30;;;;;;;11.03;68.51;101710.25;10156954;28;20108;-70
2021/10/01 05:16:25;;;;;;;5.03;0.85;;;;;;;11.01;68.60;101704.25;10142260;28;20077;-69
2021/10/01 05:21:22;;;;;;;5.63;0.73;;;;;;;10.98;68.63;101712.22;10162459;28;20046;-69
2021/10/01 05:26:18;;;;;;;6.60;1.40;;;;;;;10.98;69.46;101718.53;10162961;28;20054;-70
2021/10/01 05:31:16;;;;;;;9.85;1.58;;;;;;;11.04;68.85;101713.78;10157702;28;20725;-70
2021/10/01 05:36:12;;;;;;;5.35;1.17;;;;;;;11.02;68.87;101711.34;10142343;28;20512;-70
2021/10/01 05:41:09;;;;;;;4.80;0.77;;;;;;;11.06;68.85;101719.78;10161820;28;20039;-70
2021/10/01 05:46:07;;;;;;;9.90;1.10;;;;;;;11.05;69.55;101713.50;10162595;28;20050;-70
2021/10/01 05:51:07;;;;;;;6.32;1.08;;;;;;;11.05;68.74;101702.56;10162868;28;20531;-70
2021/10/01 05:56:08;;;;;;;6.95;1.30;;;;;;;11.04;68.42;101705.59;10165898;28;20451;-70
2021/10/01 06:01:05;;;;;;;5.13;0.90;;;;;;;11.01;68.38;101712.47;10158855;28;20811;-69
2021/10/01 06:06:02;;;;;;;13.38;1.45;;;;;;;11.01;68.81;101704.25;10163269;28;20476;-69
2021/10/01 06:10:59;;;;;;;6.85;1.13;;;;;;;10.99;68.50;101702.94;10164228;28;20092;-69
2021/10/01 06:15:56;;;;;;;4.70;1.10;;;;;;;10.94;68.79;101701.88;10156911;28;20050;-70
2021/10/01 06:20:52;;;;;;;6.57;1.23;;;;;;;10.99;69.09;101702.94;10153290;28;20132;-70
2021/10/01 06:25:49;;;;;;;6.55;1.40;;;;;;;10.98;68.47;101702.13;10159081;28;20119;-69
2021/10/01 06:30:46;;;;;;;10.07;1.55;;;;;;;11.02;69.01;101697.66;10152425;28;20161;-69
2021/10/01 06:35:44;;;;;;;8.40;1.35;;;;;;;11.02;68.87;101708.59;10147810;28;20088;-69
2021/10/01 06:40:41;;;;;;;4.65;1.20;;;;;;;11.05;68.54;101696.28;10154163;28;20043;-70
2021/10/01 06:45:40;;;;;;;6.35;1.33;;;;;;;11.15;68.90;101696.91;10157863;28;20105;-69
2021/10/01 07:22:17;;;;;;;5.40;1.13;;;;;;;11.55;67.92;101696.53;10151955;28;20078;-69
2021/10/01 08:19:42;;;;;;;9.07;1.45;;;;;;;11.98;66.60;101688.94;10143049;28;20042;-69
2021/10/01 08:24:38;;;;;;;5.43;1.10;;;;;;;12.07;66.97;101688.22;10153111;28;20054;-69
2021/10/01 08:29:35;;;;;;;7.47;1.40;;;;;;;12.19;67.11;101691.28;10128677;28;20074;-69
2021/10/01 08:34:37;;;;;;;5.28;1.27;;;;;;;12.28;66.21;101683.97;10150655;28;20043;-69
2021/10/01 08:39:33;;;;;;;6.45;1.50;;;;;;;12.36;65.56;101680.50;10127161;28;20109;-69
2021/10/01 08:44:34;;;;;;;7.07;1.33;;;;;;;12.43;65.71;101675.41;10152368;28;20061;-69
2021/10/01 08:49:31;;;;;;;5.18;1.23;;;;;;;12.49;65.49;101667.09;10146584;28;20039;-69
2021/10/01 08:54:29;;;;;;;5.45;1.30;;;;;;;12.50;65.29;101663.22;10153013;28;20420;-68
2021/10/01 08:59:26;;;;;;;4.63;1.10;;;;;;;12.51;65.24;101654.69;10158346;28;20054;-69
2021/10/01 09:04:22;;;;;;;5.60;1.40;;;;;;;12.57;65.73;101652.63;10147730;28;20051;-69
2021/10/01 09:09:19;;;;;;;7.30;1.20;;;;;;;12.62;65.88;101649.78;10146892;28;20489;-69
2021/10/01 09:14:23;;;;;;;5.93;1.10;;;;;;;12.78;66.37;101640.06;10146347;28;20042;-69
2021/10/01 09:19:20;;;;;;;5.68;1.42;;;;;;;12.90;65.56;101644.19;10142691;28;20058;-69
2021/10/01 09:24:23;;;;;;;6.10;1.48;;;;;;;13.05;65.64;101635.59;10141808;28;20120;-69
2021/10/01 09:29:38;;;;;;;8.32;1.27;;;;;;;13.16;64.98;101631.47;10153997;28;20169;-69
2021/10/01 09:34:38;;;;;;;5.18;2.05;;;;;;;13.24;65.04;101622.47;10153953;28;20046;-69
2021/10/01 09:39:41;;;;;;;6.05;1.40;;;;;;;13.38;62.93;101621.63;10150510;28;20084;-69
2021/10/01 09:44:45;;;;;;;4.80;0.98;;;;;;;13.51;62.60;101609.75;10155829;28;20050;-69
2021/10/01 09:49:42;;;;;;;5.50;1.70;;;;;;;13.71;60.88;101607.56;10155913;28;20097;-69
2021/10/01 09:54:38;;;;;;;6.55;1.60;;;;;;;13.85;61.50;101605.50;10163054;28;20077;-69
2021/10/01 09:59:36;;;;;;;7.00;1.20;;;;;;;14.04;60.72;101606.06;10157287;28;20042;-69
2021/10/01 10:04:51;;;;;;;4.55;0.98;;;;;;;14.14;59.90;101604.13;10163493;28;20050;-69
2021/10/01 10:10:06;;;;;;;5.45;0.90;;;;;;;14.29;59.20;101595.41;10153470;28;20046;-69
2021/10/01 10:15:11;;;;;;;4.80;0.80;;;;;;;14.48;58.38;101593.19;10160324;28;20069;-69
2021/10/01 10:20:08;;;;;;;5.82;1.30;;;;;;;14.61;57.98;101577.66;10153171;28;20125;-69
2021/10/01 10:25:05;;;;;;;6.00;1.48;;;;;;;14.72;58.14;101564.38;10153560;28;22192;-69
2021/10/01 10:30:05;;;;;;;6.18;1.15;;;;;;;14.87;57.59;101569.38;10138584;28;20074;-69
2021/10/01 10:35:07;;;;;;;5.93;0.90;;;;;;;14.97;57.67;101570.16;10157669;28;20062;-69
2021/10/01 10:40:07;;;;;;;8.23;1.77;;;;;;;15.06;56.97;101557.19;10155324;28;20058;-69
2021/10/01 10:45:17;;;;;;;4.07;1.02;;;;;;;15.23;57.60;101554.41;10164128;28;20078;-69
2021/10/01 10:50:23;;;;;;;11.48;1.17;;;;;;;15.43;57.08;101561.13;10156281;28;20097;-69
2021/10/01 10:55:27;;;;;;;5.55;1.00;;;;;;;15.51;56.99;101545.72;10161809;28;20078;-69
2021/10/01 11:00:28;;;;;;;8.80;1.20;;;;;;;15.68;56.91;101544.81;10154248;28;20100;-69
2021/10/01 11:05:26;;;;;;;6.35;1.08;;;;;;;15.85;56.08;101550.28;10152567;28;20042;-69
2021/10/01 11:10:45;;;;;;;6.93;1.25;;;;;;;16.08;55.70;101542.50;10149901;28;20057;-69
2021/10/01 11:15:44;;;;;;;6.88;1.40;;;;;;;16.23;54.48;101537.53;10152414;28;20765;-69
2021/10/01 11:20:40;;;;;;;7.03;1.20;;;;;;;16.39;54.30;101516.44;10162213;28;20097;-69
2021/10/01 11:25:42;;;;;;;5.90;1.30;;;;;;;16.46;53.30;101535.22;10149740;28;20058;-67
2021/10/01 11:30:40;;;;;;;6.40;1.40;;;;;;;16.42;52.43;101507.47;10155858;28;20581;-69
2021/10/01 11:35:54;;;;;;;7.57;1.10;;;;;;;16.54;51.88;101498.44;10156661;28;20104;-69
2021/10/01 11:41:02;;;;;;;;;;;;;;;16.71;52.42;101502.97;10143619;28;20078;-69
2021/10/01 11:45:59;;;;;;;5.72;1.40;;;;;;;16.88;52.18;101502.03;10147192;28;20621;-69
2021/10/01 11:50:55;;;;;;;5.72;1.00;;;;;;;17.14;50.83;101493.44;10150865;28;20076;-69
2021/10/01 11:55:56;;;;;;;8.77;1.40;;;;;;;17.11;50.74;101494.16;10156023;28;20066;-69
2021/10/01 12:00:55;;;;;;;6.75;1.10;;;;;;;17.27;49.99;101497.84;10149763;28;20043;-69
2021/10/01 12:05:53;;;;;;;8.02;0.93;;;;;;;17.56;49.23;101493.22;10142111;28;20046;-69
2021/10/01 12:10:54;;;;;;;4.53;1.08;;;;;;;17.78;50.73;101489.97;10147528;28;20496;-69
2021/10/01 12:16:10;;;;;;;6.35;1.20;;;;;;;17.80;49.69;101482.16;10150345;28;20046;-70
2021/10/01 12:21:10;;;;;;;6.85;1.13;;;;;;;17.93;49.25;101473.84;10161866;28;20057;-70
2021/10/01 12:26:16;;;;;;;10.68;1.63;;;;;;;17.76;48.39;101486.75;10149917;28;20038;-70
2021/10/01 12:31:13;;;;;;;7.28;1.20;;;;;;;17.74;49.16;101471.66;10148970;28;20133;-70
2021/10/01 12:36:09;;;;;;;5.70;1.13;;;;;;;18.37;48.70;101455.34;10148418;28;20065;-70
2021/10/01 12:41:12;;;;;;;5.20;1.40;;;;;;;18.74;46.64;101446.03;10167158;28;20050;-69
2021/10/01 12:46:09;;;;;;;5.15;0.80;;;;;;;19.30;45.00;101445.88;10151093;28;20088;-69
2021/10/01 12:51:22;;;;;;;6.53;0.88;;;;;;;19.52;45.74;101431.38;10150897;28;20169;-69
2021/10/01 12:56:18;;;;;;;6.28;1.13;;;;;;;20.14;43.84;101433.47;10159485;28;20108;-69
2021/10/01 13:01:18;;;;;;;6.13;1.20;;;;;;;20.77;42.38;101427.56;10147408;28;20084;-70
2021/10/01 13:06:29;;;;;;;6.88;0.90;;;;;;;20.51;40.43;101435.78;10153110;28;20447;-70
2021/10/01 13:11:25;;;;;;;7.43;1.17;;;;;;;20.81;40.79;101431.19;10159139;28;20096;-70
2021/10/01 13:16:25;;;;;;;3.92;0.93;;;;;;;20.67;40.41;101432.94;10155522;28;20050;-70
2021/10/01 13:21:22;;;;;;;8.32;1.15;;;;;;;20.24;41.20;101449.56;10164541;28;20052;-70
2021/10/01 13:26:26;;;;;;;7.43;1.73;;;;;;;20.71;41.88;101428.25;10150219;28;20146;-70
2021/10/01 13:31:23;;;;;;;6.38;2.40;;;;;;;19.96;41.30;101428.38;10165909;28;20047;-69
2021/10/01 13:36:20;;;;;;;6.10;1.35;;;;;;;19.10;42.74;101418.09;10165715;28;20047;-69
2021/10/01 13:41:19;;;;;;;8.02;1.08;;;;;;;18.55;44.44;101422.63;10172925;28;20501;-69
2021/10/01 13:46:16;;;;;;;8.07;1.42;;;;;;;18.20;46.73;101417.72;10163736;28;20569;-69
2021/10/01 13:51:13;;;;;;;9.02;1.67;;;;;;;18.02;46.41;101417.22;10167176;28;20050;-69
2021/10/01 13:56:10;;;;;;;8.52;2.10;;;;;;;17.93;45.75;101424.06;10172316;28;20455;-70
2021/10/01 14:01:07;;;;;;;10.25;4.22;;;;;;;17.88;46.74;101401.00;10163043;28;20038;-70
2021/10/01 14:06:03;;;;;;;7.43;2.60;;;;;;;17.92;46.55;101395.59;10166818;28;20077;-69
2021/10/01 14:11:00;;;;;;;7.53;1.88;;;;;;;17.96;47.06;101396.50;10166120;28;20101;-69
2021/10/01 14:15:56;;;;;;;7.47;1.05;;;;;;;17.92;47.83;101392.03;10159702;28;20586;-69
2021/10/01 14:20:53;;;;;;;2.47;0.70;;;;;;;17.88;49.01;101384.41;10167838;28;20092;-69
2021/10/01 14:25:49;;;;;;;3.53;0.82;;;;;;;17.70;49.85;101391.34;10151341;28;20108;-69
2021/10/01 14:30:46;;;;;;;5.65;1.00;;;;;;;17.58;49.96;101381.13;10155018;28;20082;-69
2021/10/01 14:35:42;;;;;;;3.15;0.65;;;;;;;17.40;49.77;101379.78;10155744;28;20058;-69
2021/10/01 14:40:41;;;;;;;5.72;1.23;;;;;;;17.20;50.26;101373.25;10140023;28;20124;-69
2021/10/01 14:45:58;;;;;;;6.82;1.00;;;;;;;17.08;50.30;101373.25;10152155;28;20130;-69
2021/10/01 14:50:55;;;;;;;6.13;0.80;;;;;;;16.90;50.18;101378.22;10160015;28;20053;-69
2021/10/01 14:55:52;;;;;;;5.38;0.75;;;;;;;16.81;50.90;101368.06;10148644;28;20054;-69
2021/10/01 15:00:50;;;;;;;3.88;0.85;;;;;;;16.84;51.53;101374.88;10164828;28;20042;-70
2021/10/01 15:05:48;;;;;;;3.80;1.10;;;;;;;16.77;50.80;101374.59;10157551;28;20052;-69
2021/10/01 15:10:46;;;;;;;2.47;0.80;;;;;;;16.73;50.66;101363.44;10145026;28;20092;-68
2021/10/01 15:15:43;;;;;;;4.82;1.33;;;;;;;16.68;51.13;101360.09;10158395;28;20101;-69
2021/10/01 15:20:41;;;;;;;3.78;0.85;;;;;;;16.68;52.31;101365.63;10157228;28;20066;-69
2021/10/01 15:25:40;;;;;;;4.25;0.68;;;;;;;16.68;52.30;101349.06;10151503;28;20397;-69
2021/10/01 15:30:37;;;;;;;2.75;0.70;;;;;;;16.63;52.04;101356.41;10158801;28;20098;-68
2021/10/01 15:35:35;;;;;;;2.78;0.88;;;;;;;16.55;52.86;101349.03;10156826;28;20524;-69
2021/10/01 15:40:33;;;;;;;5.10;0.85;;;;;;;16.53;54.00;101345.81;10153830;28;20469;-68
2021/10/01 15:45:30;;;;;;;5.95;1.00;;;;;;;16.48;54.00;101346.03;10156925;28;20041;-68
2021/10/01 15:50:27;;;;;;;4.80;1.55;;;;;;;16.47;53.52;101340.84;10151711;28;20129;-69
2021/10/01 15:55:24;;;;;;;3.28;0.93;;;;;;;16.41;53.53;101335.56;10162739;28;20100;-68
2021/10/01 16:00:22;;;;;;;8.43;1.73;;;;;;;16.34;53.82;101340.03;10163507;28;20636;-69
2021/10/01 16:05:23;;;;;;;4.07;1.20;;;;;;;16.27;54.31;101340.59;10167757;28;20057;-68
2021/10/01 16:10:20;;;;;;;6.00;1.40;;;;;;;16.20;55.28;101332.88;10157704;28;20664;-69
2021/10/01 16:15:18;;;;;;;6.82;1.95;;;;;;;16.15;54.89;101329.50;10152276;28;20572;-69
2021/10/01 16:20:17;;;;;;;5.43;1.40;;;;;;;16.10;55.93;101338.81;10153254;28;20105;-68
2021/10/01 16:25:19;;;;;;;6.63;1.58;;;;;;;16.02;55.76;101320.41;10149873;28;20046;-68
2021/10/01 16:30:16;;;;;;;4.20;1.37;;;;;;;15.97;55.95;101329.72;10151938;28;20054;-68
2021/10/01 16:35:13;;;;;;;5.80;1.83;;;;;;;15.88;56.49;101320.72;10155134;28;20078;-68
2021/10/01 16:40:10;;;;;;;10.60;1.23;;;;;;;15.87;55.61;101321.03;10152338;28;20046;-68
2021/10/01 16:45:07;;;;;;;9.50;3.78;;;;;;;15.84;55.46;101319.78;10153190;28;20073;-68
2021/10/01 16:50:06;;;;;;;5.35;1.80;;;;;;;15.75;55.40;101311.56;10155739;28;20128;-68
2021/10/01 16:55:05;;;;;;;6.32;2.63;;;;;;;15.67;55.44;101315.19;10139184;28;20137;-69
2021/10/01 17:00:05;;;;;;;10.60;3.25;;;;;;;15.57;55.38;101318.34;10138493;28;20496;-68
2021/10/01 17:05:02;;;;;;;5.55;2.00;;;;;;;15.49;54.75;101322.78;10149669;28;20061;-69
2021/10/01 17:10:00;;;;;;;8.75;2.70;;;;;;;15.44;54.75;101313.94;10160014;28;20196;-68
2021/10/01 17:14:56;;;;;;;4.78;2.22;;;;;;;15.36;53.76;101319.19;10141327;28;20554;-69
2021/10/01 17:19:53;;;;;;;6.65;1.70;;;;;;;15.33;54.40;101314.31;10150388;28;20043;-69
2021/10/01 17:24:50;;;;;;;3.97;1.65;;;;;;;15.27;53.82;101315.69;10161377;28;20092;-69
2021/10/01 17:29:46;;;;;;;3.90;1.23;;;;;;;15.23;54.08;101314.72;10150327;28;20104;-69
2021/10/01 17:34:43;;;;;;;6.10;1.20;;;;;;;15.19;53.83;101313.78;10147452;28;20129;-69
2021/10/01 17:39:39;;;;;;;3.15;0.93;;;;;;;15.19;53.86;101312.97;10142626;28;20475;-68
2021/10/01 17:44:36;;;;;;;3.38;1.13;;;;;;;15.19;54.27;101313.78;10138395;28;20074;-69
2021/10/01 17:49:32;;;;;;;4.70;1.10;;;;;;;15.18;53.91;101306.69;10144354;28;20085;-69
2021/10/01 17:54:28;;;;;;;3.40;1.23;;;;;;;15.19;53.80;101307.47;10140963;28;20898;-68
2021/10/01 17:59:25;;;;;;;3.40;1.40;;;;;;;15.20;54.35;101304.41;10155739;28;20090;-68
2021/10/01 18:04:24;;;;;;;6.15;1.60;;;;;;;15.21;54.09;101299.69;10123819;28;20947;-68
2021/10/01 18:09:20;;;;;;;2.63;0.82;;;;;;;15.22;54.42;101293.81;10144675;28;21791;-69
2021/10/01 18:14:17;;;;;;;6.43;1.67;;;;;;;15.23;54.48;101292.69;10133190;28;20078;-68
2021/10/01 18:19:13;;;;;;;3.17;1.00;;;;;;;15.22;54.85;101280.06;10126037;28;20039;-69
2021/10/01 18:24:10;;;;;;;4.22;1.25;;;;;;;15.22;54.58;101282.81;10147841;28;20114;-68
2021/10/01 18:29:06;;;;;;;4.82;1.00;;;;;;;15.20;55.06;101282.38;10151113;28;20046;-69
2021/10/01 18:34:03;;;;;;;5.10;1.15;;;;;;;15.16;55.03;101275.91;10158152;28;20132;-69
2021/10/01 18:38:59;;;;;;;5.63;1.10;;;;;;;15.17;55.75;101277.50;10160277;28;20080;-68
2021/10/01 18:43:56;;;;;;;5.05;1.15;;;;;;;15.12;55.66;101266.69;10149312;28;20101;-68
2021/10/01 18:48:52;;;;;;;4.40;1.33;;;;;;;15.11;56.37;101267.84;10138791;28;20133;-68
2021/10/01 18:53:48;;;;;;;5.63;1.10;;;;;;;15.13;56.45;101265.53;10148952;28;20050;-68
2021/10/01 18:58:45;;;;;;;4.57;1.00;;;;;;;15.14;56.13;101259.69;10154071;28;20046;-68
2021/10/01 19:03:42;;;;;;;4.45;1.38;;;;;;;15.09;56.25;101257.16;10149660;28;20082;-68
2021/10/01 19:08:40;;;;;;;6.93;1.33;;;;;;;15.06;56.50;101266.09;10141100;28;20524;-68
2021/10/01 19:13:37;;;;;;;5.90;1.50;;;;;;;15.04;57.10;101262.03;10152401;28;20042;-68
2021/10/01 19:18:34;;;;;;;3.97;1.15;;;;;;;15.00;57.17;101255.59;10146961;28;20050;-68
2021/10/01 19:33:32;;;;;;;3.78;1.20;;;;;;;14.90;57.93;101252.09;10141122;28;20046;-68
2021/10/01 19:38:30;;;;;;;5.32;1.08;;;;;;;14.86;58.37;101253.91;10158966;28;20187;-68
2021/10/01 19:43:26;;;;;;;5.93;1.10;;;;;;;14.83;57.78;101246.31;10159079;28;20097;-68
2021/10/01 19:48:23;;;;;;;3.55;1.20;;;;;;;14.80;58.76;101249.72;10150774;28;20094;-68
2021/10/01 19:53:20;;;;;;;4.88;0.93;;;;;;;14.77;58.58;101242.16;10145092;28;20053;-68
2021/10/01 19:58:20;;;;;;;3.25;1.23;;;;;;;14.71;58.75;101233.28;10153444;28;20113;-68
2021/10/01 20:03:17;;;;;;;6.68;1.20;;;;;;;14.66;59.27;101240.91;10154749;28;20088;-68
2021/10/01 20:08:13;;;;;;;6.07;1.52;;;;;;;14.60;59.00;101236.75;10165143;28;21836;-68
2021/10/01 20:13:10;;;;;;;4.65;1.15;;;;;;;14.52;59.33;101241.91;10169339;28;20053;-68
2021/10/01 20:18:13;;;;;;;3.63;1.23;;;;;;;14.50;59.71;101238.72;10151908;28;20077;-68
2021/10/01 20:49:04;;;;;;;5.45;1.48;;;;;;;14.24;60.75;101216.00;10145466;28;20047;-68
2021/10/01 20:54:01;;;;;;;5.30;1.25;;;;;;;14.24;60.56;101218.75;10148594;28;20100;-68
2021/10/01 20:59:47;;;;;;;5.32;1.48;;;;;;;14.24;60.33;101219.56;10161552;28;20080;-69
2021/10/01 21:36:32;;;;;;;5.72;1.65;;;;;;;14.22;62.32;101232.03;10145303;28;20481;-68
2021/10/01 21:41:34;;;;;;;5.93;1.27;;;;;;;14.16;61.30;101238.88;10140370;28;20046;-70
2021/10/01 21:51:29;;;;;;;8.57;1.60;;;;;;;14.09;61.74;101229.19;10145687;28;20050;-69
2021/10/01 21:56:26;;;;;;;4.90;1.52;;;;;;;14.11;62.44;101220.59;10138513;28;20475;-69
2021/10/01 22:01:23;;;;;;;6.65;1.58;;;;;;;14.12;62.17;101204.91;10168511;28;20038;-68
2021/10/01 22:21:49;;;;;;;3.65;1.20;;;;;;;14.13;64.10;101163.31;10169915;28;20050;-69
2021/10/01 22:26:46;;;;;;;6.93;2.58;;;;;;;14.14;63.15;101175.16;10171110;28;20077;-69
2021/10/01 22:31:43;;;;;;;5.40;1.77;;;;;;;14.13;63.55;101168.81;10167279;28;20038;-69
2021/10/01 22:36:40;;;;;;;5.93;1.58;;;;;;;14.10;64.56;101175.78;10153698;28;20050;-69
2021/10/01 22:41:38;;;;;;;4.13;1.65;;;;;;;14.06;65.44;101180.34;10154009;28;20074;-69
2021/10/01 22:46:35;;;;;;;8.30;2.00;;;;;;;14.03;67.15;101174.69;10153968;28;20069;-69
2021/10/01 22:51:33;;;;;;;6.95;2.00;;;;;;;14.03;65.52;101169.19;10164671;28;20069;-69
2021/10/01 22:56:30;;;;;;;5.40;1.67;;;;;;;13.98;66.85;101170.19;10170118;28;20089;-69
2021/10/01 23:01:29;;;;;;;5.93;1.52;;;;;;;13.92;67.71;101168.75;10151587;28;20077;-68
2021/10/01 23:06:26;;;;;;;4.00;1.40;;;;;;;13.94;66.70;101177.47;10164882;28;20132;-68
2021/10/01 23:11:48;;;;;;;5.32;1.42;;;;;;;13.96;65.38;101180.69;10161808;28;20488;-67
2021/10/01 23:53:41;;;;;;;5.72;1.48;;;;;;;13.96;62.67;101158.72;10159215;28;20408;-67
